Hub


Voltar

 INFORMAÇÕES METEOROLÓGICAS

METAR FOR SBGW


ADDS - METARS form results

(0959 UTC 18 June 2019)
Data provider http://aviationweather.gov/metar/data/
 
Forecast for: SBGW (GUARATINGUETA (M, BR)
Text: TAF SBGW 180130Z 1806/1818 01005KT 9999 FEW020 TN13/1808Z TX27/1817Z
Forecast period: 0600 to 1800 UTC 18 June 2019
Forecast type: FROM: standard forecast or significant change
Winds: from the N (10 degrees) at 6 MPH (5 knots; 2.6 m/s)
Visibility: 6 or more miles 10+ km)
Ceiling: at least 12,000 feet AGL
Clouds: few clouds at 2000 feet AGL
Weather: no significant weather forecast for this period
Text: PROB40 1808/1811 2000 BR SCT008 RMK PEB
Forecast period: 0800 to 1100 UTC 18 June 2019
Forecast type: PROBABLE: 40 percent likelihood of the following during this time
Visibility: 1.24 miles (2.00 km)
Ceiling: at least 12,000 feet AGL
Clouds: scattered clouds at 800 feet AGL
Weather: BR  (mist)


 MAPA DO AEROPORTO


 INFORMAÇÕES DA PISTA

Pista 2 Tamanho da pista 5089 ft Largura da pista 98 ft
Elevação da pista 0 ft Ranhura da pista 0 ft Proa da pista 0
Pista 20 Tamanho da pista 5089 ft Largura da pista 98 ft
Elevação da pista 0 ft Ranhura da pista 0 ft Proa da pista 0

 FREQUÊNCIAS DO AEROPORTO

Tipo APP Nome GUARA APP Frequência 122.8 MHZ
Tipo TWR Nome GUARA TWR Frequência 125.9 MHZ

 AUXÍLIOS DE NAVEGAÇÃO PRÓXIMOS AO AEROPORTO

Tipo NDB Nome Guaratingueta Frequência 275 KHZ